Flight Track Log - Related Links

Times and Time Zones

All times are in EDT time to prevent confusion due to time zone crossing. See the CTL21 flight status page for this flight to view local times or setup timezone preferences in your user account.

Time Position Orientation Groundspeed Altitude Reporting Facility
EDT Latitude Longitude Course Direction KTS MPH feet Rate Location/Type
Mon 05:15:13 PM 42.1403 -85.3722 118° Southeast 164 189 3,600  Level Chicago Center
Mon 05:16:15 PM 42.1133 -85.3064 119° Southeast 167 192 4,300 581 Climbing Chicago Center
Mon 05:17:00 PM 42.1115 -85.2657 120° Southeast  Level FlightAware Approximate
Mon 05:17:17 PM 42.0903 -85.2533 120° Southeast 164 189 4,800  Level Chicago Center
Mon 05:18:00 PM 42.0871 -85.2088 120° Southeast  Level FlightAware Approximate
Mon 05:18:19 PM 42.0703 -85.1981 116° Southeast 164 189 5,100  Level Chicago Center
Mon 05:19:00 PM 42.0647 -85.1505 117° Southeast  Level FlightAware Approximate
Mon 05:19:21 PM 42.0467 -85.1386 118° Southeast 173 199 5,100  Level Chicago Center
Mon 05:20:23 PM 42.0217 -85.0792 119° Southeast 181 208 5,100  Level Chicago Center
Mon 05:21:26 PM 42.0003 -85.0200 116° Southeast 176 203 5,100  Level Chicago Center
Mon 05:22:28 PM 41.9775 -84.9597 117° Southeast 179 206 5,100  Level Chicago Center
Mon 05:23:30 PM 41.9511 -84.8869 116° Southeast 179 206 5,100  Level Chicago Center
Mon 05:24:32 PM 41.9275 -84.8281 118° Southeast 179 206 5,100  Level Chicago Center
Mon 05:25:34 PM 41.9042 -84.7692 118° Southeast 179 206 5,100  Level Chicago Center
Mon 05:26:36 PM 41.8808 -84.7106 118° Southeast 178 205 5,100  Level Chicago Center
Mon 05:27:38 PM 41.8575 -84.6514 118° Southeast 179 206 5,100  Level Chicago Center
Mon 05:28:40 PM 41.8339 -84.5928 118° Southeast 179 206 5,100  Level Chicago Center
Mon 05:29:42 PM 41.8061 -84.5236 118° Southeast 177 204 5,100  Level Chicago Center
Mon 05:30:44 PM 41.7828 -84.4658 118° Southeast 177 204 5,100  Level Chicago Center
Mon 05:31:46 PM 41.7597 -84.4081 118° Southeast 177 204 5,100  Level Chicago Center
Mon 05:32:49 PM 41.7358 -84.3497 119° Southeast 177 204 5,100  Level Chicago Center
Mon 05:33:51 PM 41.7119 -84.2931 119° Southeast 177 204 5,100  Level Chicago Center
Mon 05:34:53 PM 41.6908 -84.2328 115° Southeast 178 205 5,100  Level Chicago Center
Mon 05:35:55 PM 41.6800 -84.1542 100° East 180 207 5,100  Level Chicago Center
Mon 05:37:00 PM 41.6541 -84.0952 120° Southeast  Level FlightAware Approximate
Mon 05:44:00 PM 41.4864 -83.7151 120° Southeast  Level FlightAware Approximate
Mon 05:45:00 PM 41.4623 -83.6609 121° Southeast  Level FlightAware Approximate
Mon 05:46:00 PM 41.4495 -83.6026 91° East  Level FlightAware Approximate
Mon 05:47:00 PM 41.4483 -83.5397 91° East  Level FlightAware Approximate
Mon 05:48:00 PM 41.4471 -83.4768 91° East  Level FlightAware Approximate
Mon 05:49:00 PM 41.4459 -83.4139 91° East  Level FlightAware Approximate
Mon 05:50:00 PM 41.4446 -83.3510 92° East  Level FlightAware Approximate
Mon 05:51:00 PM 41.4433 -83.2881 92° East  Level FlightAware Approximate
Mon 05:52:00 PM 41.4420 -83.2252 92° East  Level FlightAware Approximate
Mon 05:52:45 PM 41.5831 -83.0539 92° East 177 204 5,100  Level Cleveland Center
Mon 05:53:00 PM 41.4406 -83.1623 92° East  Level FlightAware Approximate
Mon 05:53:33 PM 41.5803 -82.9956 94° East 176 203 5,100  Level Cleveland Center
Mon 05:54:00 PM 41.4392 -83.0994 92° East  Level FlightAware Approximate
Mon 05:54:34 PM 41.5753 -82.9286 96° East 180 207 5,100  Level Cleveland Center
Mon 05:55:00 PM 41.4378 -83.0365 92° East  Level FlightAware Approximate
Mon 05:55:41 PM 41.5725 -82.8564 93° East 182 209 5,100  Level Cleveland Center
Mon 05:56:00 PM 41.4363 -82.9736 92° East  Level FlightAware Approximate
Mon 05:56:41 PM 41.5761 -82.7814 86° East 183 211 5,000  Level Cleveland Center
Mon 05:57:00 PM 41.4348 -82.9107 92° East  Level FlightAware Approximate
Mon 05:57:42 PM 41.5775 -82.7150 88° East 181 208 5,000  Level Cleveland Center
Mon 05:58:43 PM 41.5828 -82.6486 84° East 186 214 5,100 -141 Climbing Cleveland Center
Mon 05:59:50 PM 41.5861 -82.5736 87° East 186 214 4,700 -425 Descending Cleveland Center
Mon 06:00:50 PM 41.5875 -82.5014 89° East 197 227 4,200 -385 Descending Cleveland Center
Mon 06:01:39 PM 41.5883 -82.4433 89° East 188 216 4,000 -103 Descending Cleveland Center
Mon 06:02:46 PM 41.5917 -82.3711 86° East 177 204 4,000  Level Cleveland Center
Mon 06:03:46 PM 41.5947 -82.3072 86° East 175 201 4,000 -198 Level Cleveland Center
Mon 06:04:47 PM 41.5978 -82.2353 87° East 181 208 3,600 -516 Descending Cleveland Center
Mon 06:05:54 PM 41.5989 -82.1547 89° East 202 232 2,900 -545 Descending Cleveland Center
Mon 06:06:48 PM 41.6019 -82.0908 86° East 194 223 2,500 -209 Descending Cleveland Center
Mon 06:07:49 PM 41.6028 -82.0269 89° East 171 197 2,500 -295 Level Cleveland Center
Mon 06:08:50 PM 41.5889 -81.9631 106° East 179 206 1,900 -443 Descending Cleveland Center
Mon 06:09:51 PM 41.5750 -81.9017 107° East 174 200 1,600 -148 Descending Cleveland Center
Mon 06:10:52 PM 41.5569 -81.8483 114° Southeast 150 173 1,600  Level Cleveland Center
Mon 06:11:52 PM 41.5428 -81.7983 111° Southeast 152 175 1,600 -47 Level Cleveland Center
Mon 06:12:59 PM 41.5247 -81.7369 111° Southeast 144 166 1,500 -90 Descending Cleveland Center
Mon 06:14:00 PM 41.5175 -81.6833 99° East  Level Estimated
Mon 06:21:00 PM 41.5175 -81.6833 93° East  Level Estimated

Login

Don't have an account? Register now (free) for customized features, flight alerts, and more!